< < Back
Terminal Aerodrome Forecast


Current Version              Previous Versions:   1  2  3  4  5  6  7  8  9  

Terminal Aerodrome Forecast

830
FTUS44 KBMX 251136
TAFMGM
TAF
KMGM 251136Z 2512/2612 08005KT P6SM BKN070
     FM251900 08008KT P6SM SCT050 SCT250
     FM260000 12002KT P6SM SCT060=

Latest METAR

826
SAUS80 KWBC 251500
MTRMGM
METAR KMGM 251453Z 13006KT FEW049 31/21 A3018 RMK AO2 SLP217 T03060211
51006 $


USA.gov is the U.S. government's official web portal to all federal, state and local government web resources and services.